createdAt,value
2018-11-04T00:01:50.019Z,94.16
2018-11-04T00:04:18.133Z,94.15
2018-11-04T00:06:46.335Z,93.87
2018-11-04T00:09:16.259Z,94.03
2018-11-04T00:11:44.890Z,93.97
2018-11-04T00:14:13.022Z,93.07
2018-11-04T00:16:41.500Z,93.23
2018-11-04T00:19:09.653Z,93.26
2018-11-04T00:21:37.954Z,93.17
2018-11-04T00:24:06.145Z,93.03
2018-11-04T00:26:34.781Z,93.45
2018-11-04T00:29:03.185Z,93.15
2018-11-04T00:31:31.347Z,93.61
2018-11-04T00:33:59.525Z,93.03
2018-11-04T00:36:27.750Z,92.92
2018-11-04T00:38:55.924Z,92.76
2018-11-04T00:41:24.031Z,92.67
2018-11-04T00:43:52.277Z,92.36
2018-11-04T00:46:20.523Z,92.38
2018-11-04T00:48:49.170Z,92.35
2018-11-04T00:51:17.337Z,91.73
2018-11-04T00:53:45.469Z,91.78
2018-11-04T00:56:14.206Z,91.46
2018-11-04T00:58:42.432Z,91.66
2018-11-04T01:01:10.889Z,91.36
2018-11-04T01:03:39.201Z,90.92
2018-11-04T01:06:07.466Z,89.86
2018-11-04T01:08:35.870Z,88.59
2018-11-04T01:11:04.174Z,88.77
2018-11-04T01:13:33.732Z,88.94
2018-11-04T01:16:01.961Z,88.78
2018-11-04T01:18:30.309Z,88.85
2018-11-04T01:20:59.106Z,89.10
2018-11-04T01:23:27.194Z,89.10
2018-11-04T01:25:56.449Z,89.29
2018-11-04T01:28:24.786Z,89.43
2018-11-04T01:30:53.975Z,89.00
2018-11-04T01:33:22.253Z,88.99
2018-11-04T01:35:50.368Z,89.06
2018-11-04T01:38:18.575Z,89.07
2018-11-04T01:40:46.745Z,88.86
2018-11-04T01:43:15.039Z,88.64
2018-11-04T01:45:43.397Z,88.32
2018-11-04T01:48:11.802Z,87.89
2018-11-04T01:50:41.250Z,87.84
2018-11-04T01:53:09.619Z,87.27
2018-11-04T01:55:37.733Z,86.66
2018-11-04T01:58:06.365Z,86.27
2018-11-04T02:00:34.792Z,86.35
2018-11-04T02:03:03.130Z,86.34
2018-11-04T02:05:31.303Z,86.71
2018-11-04T02:07:59.724Z,86.66
2018-11-04T02:10:27.936Z,86.40
2018-11-04T02:12:56.392Z,86.73
2018-11-04T02:15:24.717Z,86.63
2018-11-04T02:17:52.943Z,86.55
2018-11-04T02:20:21.159Z,86.88
2018-11-04T02:22:49.441Z,87.20
2018-11-04T02:25:17.560Z,87.12
2018-11-04T02:27:45.697Z,87.35
2018-11-04T02:30:14.935Z,87.46
2018-11-04T02:32:43.918Z,87.72
2018-11-04T02:35:12.575Z,87.59
2018-11-04T02:37:41.132Z,87.76
2018-11-04T02:40:09.511Z,87.82
2018-11-04T02:42:37.735Z,88.55
2018-11-04T02:45:06.401Z,88.27
2018-11-04T02:47:34.753Z,88.13
2018-11-04T02:50:02.870Z,89.52
2018-11-04T02:52:31.093Z,89.61
2018-11-04T02:54:59.253Z,90.61
2018-11-04T02:57:27.503Z,91.40
2018-11-04T02:59:55.629Z,91.00
2018-11-04T03:02:23.754Z,90.50
2018-11-04T03:04:51.869Z,90.40
2018-11-04T03:07:20.019Z,90.40
2018-11-04T03:09:48.189Z,89.74
2018-11-04T03:12:16.314Z,89.80
2018-11-04T03:14:44.421Z,90.09
2018-11-04T03:17:12.547Z,89.97
2018-11-04T03:19:40.679Z,89.46
2018-11-04T03:22:08.805Z,89.65
2018-11-04T03:24:36.962Z,90.06
2018-11-04T03:27:05.938Z,89.77
2018-11-04T03:29:34.092Z,89.42
2018-11-04T03:32:02.221Z,89.78
2018-11-04T03:34:30.314Z,89.94
2018-11-04T03:36:58.447Z,89.62
2018-11-04T03:39:26.534Z,89.98
2018-11-04T03:41:54.651Z,89.59
2018-11-04T03:44:22.781Z,89.57
2018-11-04T03:46:50.891Z,89.69
2018-11-04T03:49:19.105Z,90.03
2018-11-04T03:51:47.224Z,89.77
2018-11-04T03:54:15.353Z,89.63
2018-11-04T03:56:43.466Z,89.71
2018-11-04T03:59:11.622Z,90.02
2018-11-04T04:01:39.773Z,90.03
2018-11-04T04:04:07.863Z,90.03
2018-11-04T04:06:35.955Z,89.49
2018-11-04T04:09:05.122Z,89.59
2018-11-04T04:11:33.237Z,89.28
2018-11-04T04:14:01.430Z,89.52
2018-11-04T04:16:29.620Z,89.57
2018-11-04T04:18:57.767Z,89.57
2018-11-04T04:21:25.930Z,89.30
2018-11-04T04:23:54.101Z,89.75
2018-11-04T04:26:22.260Z,89.44
2018-11-04T04:28:50.629Z,89.04
2018-11-04T04:31:18.750Z,89.57
2018-11-04T04:33:46.876Z,89.37
2018-11-04T04:36:14.995Z,88.68
2018-11-04T04:38:43.179Z,88.92
2018-11-04T04:41:11.295Z,88.41
2018-11-04T04:43:39.566Z,88.74
2018-11-04T04:46:07.699Z,88.19
2018-11-04T04:48:35.822Z,88.23
2018-11-04T04:51:03.934Z,88.24
2018-11-04T04:53:32.098Z,88.43
2018-11-04T04:56:00.213Z,88.43
2018-11-04T04:58:28.328Z,87.89
2018-11-04T05:00:56.519Z,88.41
2018-11-04T05:03:24.653Z,88.12
2018-11-04T05:05:53.268Z,88.19
2018-11-04T05:08:21.403Z,88.40
2018-11-04T05:10:49.940Z,88.60
2018-11-04T05:13:18.225Z,88.72
2018-11-04T05:15:46.363Z,88.64
2018-11-04T05:18:14.498Z,88.52
2018-11-04T05:20:42.628Z,88.29
2018-11-04T05:23:10.759Z,88.08
2018-11-04T05:25:38.888Z,87.37
2018-11-04T05:28:07.614Z,87.64
2018-11-04T05:30:36.647Z,88.01
2018-11-04T05:33:05.069Z,87.57
2018-11-04T05:35:33.204Z,88.47
2018-11-04T05:38:01.486Z,87.53
2018-11-04T05:40:29.667Z,87.93
2018-11-04T05:42:57.837Z,88.25
2018-11-04T05:45:25.969Z,88.49
2018-11-04T05:47:54.092Z,88.02
2018-11-04T05:50:22.239Z,88.52
2018-11-04T05:52:50.451Z,87.83
2018-11-04T05:55:18.571Z,87.59
2018-11-04T05:57:46.771Z,87.35
2018-11-04T06:00:14.861Z,87.49
2018-11-04T06:02:42.991Z,87.03
2018-11-04T06:05:11.706Z,87.79
2018-11-04T06:07:40.174Z,87.98
2018-11-04T06:10:08.321Z,87.60
2018-11-04T06:12:36.880Z,87.65
2018-11-04T06:15:06.054Z,87.23
2018-11-04T06:17:34.186Z,87.11
2018-11-04T06:20:02.298Z,86.90
2018-11-04T06:22:30.402Z,87.48
2018-11-04T06:24:58.525Z,87.18
2018-11-04T06:27:26.646Z,87.16
2018-11-04T06:29:54.837Z,86.45
2018-11-04T06:32:23.084Z,86.23
2018-11-04T06:34:51.207Z,86.86
2018-11-04T06:37:19.374Z,86.64
2018-11-04T06:39:47.974Z,86.77
2018-11-04T06:42:16.093Z,86.76
2018-11-04T06:44:44.217Z,87.51
2018-11-04T06:47:12.429Z,87.33
2018-11-04T06:49:40.529Z,87.08
2018-11-04T06:52:08.644Z,86.93
2018-11-04T06:54:36.797Z,86.25
2018-11-04T06:57:05.101Z,86.82
2018-11-04T06:59:33.317Z,86.50
2018-11-04T07:02:01.466Z,86.86
2018-11-04T07:04:30.113Z,86.33
2018-11-04T07:06:58.485Z,87.29
2018-11-04T07:09:26.614Z,87.69
2018-11-04T07:11:54.733Z,87.72
2018-11-04T07:14:23.405Z,87.60
2018-11-04T07:16:51.536Z,87.84
2018-11-04T07:19:19.658Z,88.35
2018-11-04T07:21:47.818Z,88.14
2018-11-04T07:24:15.961Z,88.12
2018-11-04T07:26:44.084Z,87.81
2018-11-04T07:29:12.223Z,87.72
2018-11-04T07:31:40.336Z,86.66
2018-11-04T07:34:08.817Z,86.98
2018-11-04T07:36:36.984Z,86.08
2018-11-04T07:39:08.529Z,86.47
2018-11-04T07:41:36.648Z,85.91
2018-11-04T07:44:04.899Z,86.20
2018-11-04T07:46:32.971Z,86.62
2018-11-04T07:49:01.109Z,86.09
2018-11-04T07:51:29.275Z,86.42
2018-11-04T07:53:57.466Z,86.21
2018-11-04T07:56:25.593Z,85.19
2018-11-04T07:58:53.701Z,85.06
2018-11-04T08:01:21.896Z,84.67
2018-11-04T08:03:50.015Z,84.13
2018-11-04T08:06:18.201Z,84.67
2018-11-04T08:08:46.397Z,84.33
2018-11-04T08:11:14.523Z,83.69
2018-11-04T08:13:42.782Z,83.78
2018-11-04T08:16:10.753Z,83.53
2018-11-04T08:18:38.885Z,82.27
2018-11-04T08:21:07.036Z,82.24
2018-11-04T08:23:35.167Z,82.52
2018-11-04T08:26:03.387Z,82.15
2018-11-04T08:28:31.541Z,82.63
2018-11-04T08:30:59.690Z,82.26
2018-11-04T08:33:27.862Z,81.80
2018-11-04T08:35:56.532Z,81.42
2018-11-04T08:38:24.715Z,81.58
2018-11-04T08:40:59.640Z,81.39
2018-11-04T08:43:27.778Z,82.26
2018-11-04T08:45:56.211Z,82.45
2018-11-04T08:48:24.294Z,81.92
2018-11-04T08:50:52.450Z,80.42
2018-11-04T08:53:20.601Z,79.69
2018-11-04T08:55:48.770Z,79.31
2018-11-04T08:58:17.168Z,77.00
2018-11-04T09:00:45.306Z,75.37
2018-11-04T09:03:13.458Z,73.21
2018-11-04T09:05:41.619Z,72.78
2018-11-04T09:08:09.778Z,70.61
2018-11-04T09:10:37.942Z,69.52
2018-11-04T09:13:06.096Z,66.91
2018-11-04T09:15:34.262Z,66.27
2018-11-04T09:18:02.479Z,66.88
2018-11-04T09:20:30.727Z,66.07
2018-11-04T09:22:58.854Z,67.53
2018-11-04T09:25:27.098Z,67.70
2018-11-04T09:27:55.325Z,69.36
2018-11-04T09:30:23.479Z,71.45
2018-11-04T09:32:51.662Z,71.64
2018-11-04T09:35:19.870Z,70.98
2018-11-04T09:37:48.156Z,69.20
2018-11-04T09:40:16.349Z,69.86
2018-11-04T09:42:44.490Z,68.80
2018-11-04T09:45:12.670Z,68.91
2018-11-04T09:47:41.535Z,69.75
2018-11-04T09:50:11.147Z,68.51
2018-11-04T09:52:39.539Z,66.52
2018-11-04T09:55:08.999Z,67.39
2018-11-04T09:57:37.159Z,68.13
2018-11-04T10:00:06.653Z,68.96
2018-11-04T10:02:34.794Z,69.35
2018-11-04T10:05:02.942Z,68.77
2018-11-04T10:07:31.159Z,68.54
2018-11-04T10:09:59.291Z,67.72
2018-11-04T10:12:27.437Z,68.80
2018-11-04T10:14:55.607Z,68.75
2018-11-04T10:17:23.910Z,68.65
2018-11-04T10:19:52.396Z,68.90
2018-11-04T10:22:20.237Z,68.87
2018-11-04T10:24:48.446Z,68.56
2018-11-04T10:27:16.590Z,67.63
2018-11-04T10:29:45.633Z,68.18
2018-11-04T10:32:13.778Z,67.76
2018-11-04T10:34:41.933Z,67.38
2018-11-04T10:37:12.387Z,67.14
2018-11-04T10:39:40.574Z,67.19
2018-11-04T10:42:08.783Z,66.24
2018-11-04T10:44:37.898Z,66.16
2018-11-04T10:47:06.222Z,66.54
2018-11-04T10:49:34.527Z,66.31
2018-11-04T10:52:02.646Z,68.55
2018-11-04T10:54:30.810Z,69.00
2018-11-04T10:56:59.030Z,67.61
2018-11-04T10:59:27.155Z,65.33
2018-11-04T11:01:55.359Z,65.23
2018-11-04T11:04:23.956Z,64.02
2018-11-04T11:06:52.129Z,63.74
2018-11-04T11:09:20.287Z,64.98
2018-11-04T11:11:48.432Z,66.00
2018-11-04T11:14:16.574Z,66.69
2018-11-04T11:16:44.743Z,67.97
2018-11-04T11:19:13.090Z,69.01
2018-11-04T11:21:41.246Z,68.12
2018-11-04T11:24:09.435Z,67.34
2018-11-04T11:26:37.628Z,66.77
2018-11-04T11:29:05.798Z,66.59
2018-11-04T11:31:34.351Z,69.14
2018-11-04T11:34:02.517Z,71.98
2018-11-04T11:36:30.658Z,71.93
2018-11-04T11:38:58.889Z,72.93
2018-11-04T11:41:27.159Z,73.11
2018-11-04T11:43:55.303Z,73.73
2018-11-04T11:46:23.802Z,73.14
2018-11-04T11:48:51.970Z,74.42
2018-11-04T11:51:20.134Z,74.50
2018-11-04T11:53:49.545Z,72.61
2018-11-04T11:56:17.706Z,72.35
2018-11-04T11:58:46.006Z,72.54
2018-11-04T12:01:14.204Z,72.44
2018-11-04T12:03:42.354Z,73.08
2018-11-04T12:06:10.561Z,72.59
2018-11-04T12:08:38.846Z,72.85
2018-11-04T12:11:06.990Z,72.54
2018-11-04T12:13:35.151Z,74.19
2018-11-04T12:16:03.362Z,73.60
2018-11-04T12:18:31.495Z,73.70
2018-11-04T12:20:59.649Z,72.75
2018-11-04T12:23:27.920Z,73.36
2018-11-04T12:25:56.012Z,73.03
2018-11-04T12:28:24.162Z,73.19
2018-11-04T12:30:52.342Z,73.65
2018-11-04T12:33:20.566Z,73.99
2018-11-04T12:35:48.819Z,72.94
2018-11-04T12:38:17.014Z,72.31
2018-11-04T12:40:45.262Z,72.75
2018-11-04T12:43:13.869Z,72.52
2018-11-04T12:45:42.051Z,72.85
2018-11-04T12:48:10.185Z,72.24
2018-11-04T12:50:38.346Z,73.52
2018-11-04T12:53:06.506Z,71.58
2018-11-04T12:55:34.654Z,71.67
2018-11-04T12:58:02.958Z,71.98
2018-11-04T13:00:31.126Z,71.45
2018-11-04T13:02:59.281Z,70.55
2018-11-04T13:05:27.462Z,69.32
2018-11-04T13:07:55.617Z,69.26
2018-11-04T13:10:23.853Z,68.56
2018-11-04T13:12:52.822Z,68.99
2018-11-04T13:15:20.965Z,70.24
2018-11-04T13:17:49.146Z,69.31
2018-11-04T13:20:17.332Z,69.02
2018-11-04T13:22:45.554Z,70.87
2018-11-04T13:25:13.709Z,70.78
2018-11-04T13:27:41.878Z,70.69
2018-11-04T13:30:11.395Z,70.09
2018-11-04T13:32:39.657Z,69.89
2018-11-04T13:35:08.215Z,70.82
2018-11-04T13:37:36.516Z,71.00
2018-11-04T13:40:06.160Z,70.96
2018-11-04T13:42:35.256Z,71.45
2018-11-04T13:45:04.757Z,71.45
2018-11-04T13:47:32.920Z,69.92
2018-11-04T13:50:01.139Z,70.27
2018-11-04T13:52:29.336Z,71.15
2018-11-04T13:54:57.485Z,71.25
2018-11-04T13:57:25.749Z,70.90
2018-11-04T13:59:53.910Z,70.48
2018-11-04T14:02:22.084Z,70.78
2018-11-04T14:04:51.228Z,71.98
2018-11-04T14:07:19.391Z,70.73
2018-11-04T14:09:47.710Z,70.08
2018-11-04T14:12:15.926Z,70.60
2018-11-04T14:14:46.497Z,72.50
2018-11-04T14:17:15.096Z,70.55
2018-11-04T14:19:43.394Z,71.16
2018-11-04T14:22:11.620Z,70.33
2018-11-04T14:24:40.917Z,69.86
2018-11-04T14:27:09.072Z,69.73
2018-11-04T14:29:37.265Z,70.39
2018-11-04T14:32:05.879Z,70.89
2018-11-04T14:34:34.040Z,70.66
2018-11-04T14:37:03.014Z,71.13
2018-11-04T14:39:31.181Z,69.93
2018-11-04T14:41:59.328Z,70.88
2018-11-04T14:44:27.526Z,70.68
2018-11-04T14:46:55.690Z,70.87
2018-11-04T14:49:23.892Z,71.10
2018-11-04T14:51:52.131Z,70.09
2018-11-04T14:54:20.290Z,71.44
2018-11-04T14:56:48.439Z,70.01
2018-11-04T14:59:16.613Z,70.97
2018-11-04T15:01:44.936Z,71.46
2018-11-04T15:04:13.002Z,72.36
2018-11-04T15:06:42.019Z,71.99
2018-11-04T15:09:10.402Z,70.91
2018-11-04T15:11:38.555Z,71.41
2018-11-04T15:14:06.851Z,72.77
2018-11-04T15:16:35.175Z,72.00
2018-11-04T15:19:03.398Z,71.79
2018-11-04T15:21:31.622Z,73.12
2018-11-04T15:23:59.770Z,73.86
2018-11-04T15:26:27.971Z,75.47
2018-11-04T15:28:56.148Z,74.13
2018-11-04T15:31:24.311Z,74.82
2018-11-04T15:33:52.522Z,75.41
2018-11-04T15:36:20.766Z,75.31
2018-11-04T15:38:49.014Z,75.73
2018-11-04T15:41:17.178Z,75.77
2018-11-04T15:43:45.340Z,75.01
2018-11-04T15:46:13.530Z,75.70
2018-11-04T15:48:41.746Z,75.63
2018-11-04T15:51:09.978Z,76.40
2018-11-04T15:53:38.165Z,76.52
2018-11-04T15:56:06.473Z,76.48
2018-11-04T15:58:34.986Z,76.93
2018-11-04T16:01:03.205Z,78.06
2018-11-04T16:03:31.397Z,78.20
2018-11-04T16:05:59.651Z,78.31
2018-11-04T16:08:27.799Z,78.45
2018-11-04T16:10:56.024Z,78.50
2018-11-04T16:13:24.162Z,78.46
2018-11-04T16:15:52.312Z,78.45
2018-11-04T16:18:20.692Z,79.60
2018-11-04T16:20:48.716Z,81.93
2018-11-04T16:23:16.977Z,83.20
2018-11-04T16:25:45.167Z,83.21
2018-11-04T16:28:13.306Z,83.58
2018-11-04T16:30:41.443Z,82.80
2018-11-04T16:33:09.639Z,82.01
2018-11-04T16:35:37.802Z,82.38
2018-11-04T16:38:05.934Z,82.22
2018-11-04T16:40:34.131Z,82.76
2018-11-04T16:43:02.276Z,84.15
2018-11-04T16:45:30.498Z,84.86
2018-11-04T16:47:59.271Z,84.94
2018-11-04T16:50:27.431Z,85.54
2018-11-04T16:52:55.632Z,83.78
2018-11-04T16:55:25.013Z,82.98
2018-11-04T16:57:53.158Z,83.72
2018-11-04T17:00:21.321Z,83.57
2018-11-04T17:02:49.719Z,84.02
2018-11-04T17:05:18.170Z,84.83
2018-11-04T17:07:46.105Z,85.29
2018-11-04T17:10:14.291Z,85.45
2018-11-04T17:12:42.543Z,84.42
2018-11-04T17:15:12.350Z,86.72
2018-11-04T17:17:41.036Z,85.86
2018-11-04T17:20:15.359Z,84.66
2018-11-04T17:22:44.078Z,84.44
2018-11-04T17:25:12.727Z,85.45
2018-11-04T17:27:40.909Z,85.03
2018-11-04T17:30:12.482Z,84.47
2018-11-04T17:32:40.613Z,86.80
2018-11-04T17:35:10.124Z,88.15
2018-11-04T17:37:38.313Z,88.53
2018-11-04T17:40:07.602Z,88.73
2018-11-04T17:42:35.973Z,88.12
2018-11-04T17:45:04.191Z,87.94
2018-11-04T17:47:32.415Z,86.79
2018-11-04T17:50:00.547Z,87.43
2018-11-04T17:52:28.748Z,87.26
2018-11-04T17:54:56.954Z,87.20
2018-11-04T17:57:25.105Z,88.26
2018-11-04T17:59:53.329Z,88.79
2018-11-04T18:02:21.481Z,90.30
2018-11-04T18:04:49.622Z,91.64
2018-11-04T18:07:17.896Z,90.91
2018-11-04T18:09:46.053Z,89.77
2018-11-04T18:12:14.206Z,87.70
2018-11-04T18:14:42.357Z,87.96
2018-11-04T18:17:10.505Z,87.78
2018-11-04T18:19:38.725Z,88.14
2018-11-04T18:22:06.966Z,90.55
2018-11-04T18:24:35.142Z,90.09
2018-11-04T18:27:03.334Z,90.15
2018-11-04T18:29:31.480Z,89.95
2018-11-04T18:31:59.703Z,89.03
2018-11-04T18:34:27.830Z,89.12
2018-11-04T18:36:55.972Z,89.08
2018-11-04T18:39:24.178Z,87.37
2018-11-04T18:41:52.355Z,90.26
2018-11-04T18:44:20.515Z,89.88
2018-11-04T18:46:48.658Z,90.47
2018-11-04T18:49:16.835Z,90.66
2018-11-04T18:51:44.966Z,91.91
2018-11-04T18:54:13.120Z,89.45
2018-11-04T18:56:41.291Z,88.74
2018-11-04T18:59:09.491Z,88.62
2018-11-04T19:01:37.670Z,88.48
2018-11-04T19:04:05.818Z,91.82
2018-11-04T19:06:34.191Z,90.07
2018-11-04T19:09:02.420Z,90.92
2018-11-04T19:11:30.603Z,91.40
2018-11-04T19:13:58.682Z,92.33
2018-11-04T19:16:26.907Z,92.56
2018-11-04T19:18:55.099Z,90.12
2018-11-04T19:21:23.221Z,89.03
2018-11-04T19:23:52.206Z,89.38
2018-11-04T19:26:20.364Z,88.89
2018-11-04T19:28:48.506Z,89.92
2018-11-04T19:31:17.889Z,89.51
2018-11-04T19:33:45.971Z,89.40
2018-11-04T19:36:14.205Z,90.24
2018-11-04T19:38:42.954Z,90.08
2018-11-04T19:41:11.114Z,90.57
2018-11-04T19:43:39.268Z,89.69
2018-11-04T19:46:07.470Z,94.07
2018-11-04T19:48:35.648Z,93.14
2018-11-04T19:51:03.829Z,93.83
2018-11-04T19:53:31.923Z,91.88
2018-11-04T19:56:00.176Z,91.35
2018-11-04T19:58:28.357Z,91.12
2018-11-04T20:00:57.035Z,89.12
2018-11-04T20:03:25.182Z,90.90
2018-11-04T20:05:53.333Z,92.33
2018-11-04T20:08:23.519Z,90.87
2018-11-04T20:10:51.836Z,93.33
2018-11-04T20:13:25.500Z,93.59
2018-11-04T20:15:53.631Z,93.56
2018-11-04T20:18:27.131Z,93.28
2018-11-04T20:20:55.340Z,92.92
2018-11-04T20:23:23.463Z,92.90
2018-11-04T20:25:57.062Z,91.77
2018-11-04T20:28:25.195Z,91.06
2018-11-04T20:30:53.350Z,90.84
2018-11-04T20:33:21.549Z,90.77
2018-11-04T20:35:49.742Z,90.99
2018-11-04T20:38:17.836Z,90.90
2018-11-04T20:40:51.573Z,90.59
2018-11-04T20:43:19.754Z,90.39
2018-11-04T20:45:47.920Z,90.44
2018-11-04T20:49:25.426Z,90.47
2018-11-04T20:51:54.462Z,90.25
2018-11-04T20:54:22.588Z,89.79
2018-11-04T20:56:56.123Z,89.87
2018-11-04T20:59:24.408Z,89.75
2018-11-04T21:01:52.625Z,89.77
2018-11-04T21:04:20.851Z,88.78
2018-11-04T21:06:48.997Z,89.40
2018-11-04T21:09:17.751Z,89.29
2018-11-04T21:11:45.926Z,89.00
2018-11-04T21:14:14.104Z,89.11
2018-11-04T21:16:43.092Z,88.56
2018-11-04T21:19:11.119Z,89.19
2018-11-04T21:21:39.271Z,89.47
2018-11-04T21:24:07.436Z,88.98
2018-11-04T21:26:35.669Z,89.17
2018-11-04T21:29:03.866Z,89.34
2018-11-04T21:31:32.068Z,89.30
2018-11-04T21:34:00.943Z,88.90
2018-11-04T21:36:29.171Z,88.94
2018-11-04T21:38:57.354Z,88.93
2018-11-04T21:41:25.664Z,88.54
2018-11-04T21:43:54.082Z,88.95
2018-11-04T21:46:22.924Z,88.13
2018-11-04T21:48:51.054Z,88.16
2018-11-04T21:51:19.210Z,88.89
2018-11-04T21:53:47.371Z,88.72
2018-11-04T21:56:15.750Z,88.63
2018-11-04T21:58:43.885Z,87.96
2018-11-04T22:01:12.035Z,88.06
2018-11-04T22:03:40.544Z,87.91
2018-11-04T22:06:08.583Z,88.21
2018-11-04T22:08:36.743Z,88.06
2018-11-04T22:11:04.873Z,87.85
2018-11-04T22:13:33.114Z,87.92
2018-11-04T22:16:01.229Z,87.84
2018-11-04T22:18:29.363Z,87.30
2018-11-04T22:20:57.599Z,87.37
2018-11-04T22:23:25.915Z,87.20
2018-11-04T22:25:54.098Z,86.70
2018-11-04T22:28:22.240Z,86.74
2018-11-04T22:30:50.384Z,86.50
2018-11-04T22:33:18.654Z,87.67
2018-11-04T22:35:46.797Z,87.89
2018-11-04T22:38:14.955Z,87.60
2018-11-04T22:40:43.121Z,87.73
2018-11-04T22:43:11.359Z,87.37
2018-11-04T22:45:39.529Z,87.43
2018-11-04T22:48:07.720Z,87.69
2018-11-04T22:50:35.886Z,87.93
2018-11-04T22:53:04.026Z,87.80
2018-11-04T22:55:32.209Z,87.74
2018-11-04T22:58:06.503Z,87.65
2018-11-04T23:00:42.894Z,87.76
2018-11-04T23:03:11.356Z,87.21
2018-11-04T23:05:39.523Z,87.29
2018-11-04T23:08:08.330Z,87.61
2018-11-04T23:10:36.694Z,87.58
2018-11-04T23:13:04.898Z,87.59
2018-11-04T23:15:33.069Z,87.59
2018-11-04T23:18:02.393Z,87.29
2018-11-04T23:20:32.722Z,87.46
2018-11-04T23:23:02.955Z,87.11
2018-11-04T23:25:34.035Z,87.26
2018-11-04T23:28:03.139Z,87.56
2018-11-04T23:30:32.125Z,87.44
2018-11-04T23:33:00.911Z,87.47
2018-11-04T23:35:29.099Z,87.11
2018-11-04T23:37:57.255Z,86.89
2018-11-04T23:40:25.460Z,86.70
2018-11-04T23:42:53.780Z,87.20
2018-11-04T23:45:21.910Z,87.20
2018-11-04T23:47:50.052Z,87.19
2018-11-04T23:50:18.377Z,87.17
2018-11-04T23:52:46.679Z,86.84
2018-11-04T23:55:15.507Z,87.10
2018-11-04T23:57:44.408Z,87.46
